Tiempo atmosférico en la estación meteorológica de Toledo, Toledo (515 m.)



Fecha
DESCASC
Temp. máxima en grados centígrados (hora)
DESCASC
Temp. mínima en grados centígrados (hora)
DESCASC
Temp. media en grados centígrados
DESCASC
Racha de viento máxima en m/sg (hora)
DESCASC
Velocidad máxima media en intervalos de 10 minutos(hora)
DESCASC
Precipitaciones diarias en mm
DESCASC
Precipitaciones de 00:00 a 06:00 en mm
DESCASC
Precipitaciones de 06:00 a 12:00 en mm
DESCASC
Precipitaciones de 12:00 a 18:00 en mm
DESCASC
Precipitaciones de 18:00 a 24:00 en mm
DESCASC
25-01-2020 9.7 (16:00) 6.5 (04:40) 8.1 6.67 (05:20) 4.72 (05:20) 10.4 5 0 3 2.4
24-01-2020 11.8 (13:00) 6.3 (08:00) 9.1 8.61 (02:20) 5.28 (03:20) 4.4 3.2 1.2 0 0
23-01-2020 12.2 (16:30) 1.7 (08:30) 6.9 9.17 (11:00) 6.11 (11:10) 0 0 0 0 0
22-01-2020 11.4 (14:10) 4 (00:00) 7.7 8.89 (14:10) 5.83 (14:10) 1.2 0.6 0.6 0 0
21-01-2020 8.7 (16:00) 4.2 (00:00) 6.4 15.83 (09:40) 8.61 (09:40) 1.4 0 0 1.4 0
20-01-2020 7.3 (16:30) 3.2 (00:00) 5.3 16.11 (12:10) 10 (12:50) 0 0 0 0 0
19-01-2020 10.2 (17:30) 4.6 (00:00) 7.4 17.5 (17:40) 9.17 (17:30) 3.8 3.8 0 0 0
18-01-2020 11.2 (13:00) 6 (00:00) 8.6 15.56 (23:59) 9.72 (23:59) 7.6 0 2 0 5.6
17-01-2020 14.3 (15:40) 6.4 (00:00) 10.4 10.83 (13:00) 7.5 (13:00) 0 0 0 0 0
16-01-2020 17.5 (15:40) 6.6 (00:00) 12 9.17 (15:40) 6.11 (16:00) 0 0 0 0 0
15-01-2020 10.6 (14:20) 2 (00:00) 6.3 4.44 (06:40) 3.06 (02:20) 0 0 0 0 0
14-01-2020 13.2 (16:00) -2.6 (-00:0) 5.3 6.11 (16:20) 4.17 (16:20) 0 0 0 0 0
13-01-2020 9.3 (16:10) -3.1 (-00:0) 3.1 4.17 (15:50) 2.5 (05:50) 0 0 0 0 0
12-01-2020 11.9 (15:20) -3.2 (08:50) 4.3 5.28 (16:40) 3.61 (16:40) 0 0 0 0 0
11-01-2020 12.7 (16:40) -0.9 (-00:0) 5.9 6.39 (13:50) 2.5 (00:10) 0 0 0 0 0
10-01-2020 13 (15:00) 3.7 (00:00) 8.4 9.72 (15:10) 6.11 (15:20) 0 0 0 0 0
09-01-2020 14.5 (17:00) 0.8 (00:00) 7.7 6.11 (12:30) 4.17 (02:50) 0 0 0 0 0
08-01-2020 15.1 (16:10) -0.9 (-00:0) 7.1 5 (14:10) 3.33 (13:30) 0 0 0 0 0
07-01-2020 14.8 (16:40) -1.1 (-00:0) 6.9 4.72 (09:40) 3.06 (09:40) 0 0 0 0 0
06-01-2020 14.3 (17:10) -1.2 (-00:0) 6.6 4.72 (12:00) 3.61 (12:00) 0 0 0 0 0
05-01-2020 12.6 (16:10) -2 (-00:0) 5.3 2.78 (17:00) 2.22 (17:00) 0 0 0 0 0
04-01-2020 12.3 (17:10) 1 (00:00) 6.7 6.67 (14:50) 4.17 (15:00) 0 0 0 0 0
03-01-2020 9.5 (16:20) -0.2 (00:00) 4.6 4.72 (22:50) 3.33 (22:50) 0 0 0 0 0
02-01-2020 12.4 (16:50) -1.5 (-00:0) 5.4 4.44 (04:30) 3.33 (04:20) 0 0 0 0 0
01-01-2020 11.1 (17:20) -1.6 (-00:0) 4.8 5.28 (08:30) 3.61 (08:30) 0 0 0 0 0
31-12-2019 12.3 (16:40) -1.2 (-00:0) 5.6 5.28 (12:30) 3.61 (12:30) 0 0 0 0 0
30-12-2019 11 (15:30) -0.6 (-00:0) 5.2 6.94 (16:20) 4.72 (16:20) 0 0 0 0 0
29-12-2019 14.4 (16:30) 1.1 (00:00) 7.7 6.94 (07:40) 5.28 (04:30) 0 0 0 0 0
28-12-2019 13.3 (16:40) -1.1 (-00:0) 6.1 5.83 (16:00) 4.17 (16:00) 0 0 0 0 0

Gráficas

Temp. máximas Temp. mínimas Temp. medias Precipitaciones Rachas de viento máximas Velocidades máximas media en intervalos de 10 minutos

Datos horarios

Fecha y hora oficial Temperatura (ºC) Velocidad del viento (km/h) Dirección del viento Racha (km/h) Dirección de racha Precipitación (mm) Presión (hPa) Tendencia (hPa) Humedad (%)
2020-01-26 23:00:00 5.3 6 Oeste 10 Oeste 0 964.9 1 94
2020-01-26 22:00:00 5.6 7 Oeste 10 Oeste 0 964.5 1.3 92
2020-01-26 21:00:00 6.4 4 Oeste 11 Oeste 0 964.4 1.5 87
2020-01-26 20:00:00 7.2 7 Oeste 14 Noroeste 0 963.9 1.4 82
2020-01-26 19:00:00 8 5 Noroeste 19 Noroeste 0 963.2 0.8 81
2020-01-26 18:00:00 9.8 12 Noroeste 23 Noroeste 0 962.9 0.6 74
2020-01-26 17:00:00 10.4 13 Oeste 27 Oeste 0 962.5 -0.2 74
2020-01-26 16:00:00 10.9 15 Oeste 25 Oeste 0 962.4 -0.8 73
2020-01-26 15:00:00 11.5 17 Oeste 24 Oeste 0 962.3 -1.1 72
2020-01-26 14:00:00 11.4 13 Oeste 21 Oeste 0 962.7 0 73
2020-01-26 13:00:00 10.3 14 Oeste 21 Oeste 0 963.2 0.9 78
2020-01-26 12:00:00 8.8 9 Oeste 16 Oeste 0 963.4 1.7 88
2020-01-26 11:00:00 8.1 7 Oeste 13 Oeste 0 962.7 2 95
2020-01-26 10:00:00 7.2 4 Sudoeste 8 Oeste 0 962.3 2 100
2020-01-26 09:00:00 6.9 5 Oeste 13 Noroeste 0 961.7 2.3 99
2020-01-26 08:00:00 7 7 Oeste 12 Noroeste 0 960.7 1.6 100
2020-01-26 07:00:00 6.9 8 Oeste 14 Oeste 0 960.3 1.2 100
2020-01-26 06:00:00 6.9 8 Oeste 13 Oeste 0 959.4 1 100
2020-01-26 05:00:00 6.9 8 Oeste 18 Oeste 0 959.1 0.9 100
2020-01-26 04:00:00 7 9 Oeste 13 Oeste 0 959.1 1.1 100
2020-01-26 03:00:00 6.9 5 Noroeste 15 Oeste 0 958.4 0.5 100
2020-01-26 02:00:00 7.1 11 Noroeste 15 Noroeste 0 958.2 0.7 100
2020-01-26 01:00:00 7.5 6 Oeste 13 Oeste 0 958 0.7 100
2020-01-26 00:00:00 7.7 9 Oeste 15 Noroeste 0 957.9 1.2 100
2020-01-25 23:00:00 7.8 4 Oeste 10 Oeste 0 957.5 1.3 100
2020-01-25 22:00:00 7.9 7 Oeste 12 Noroeste 0 957.3 1.7 100
2020-01-25 21:00:00 7.7 5 Noroeste 8 Oeste 0 956.7 1.7 99
2020-01-25 20:00:00 8.3 2 Oeste 4 Oeste 0.2 956.2 1.4 98
2020-01-25 19:00:00 8.6 3 Noroeste 9 Noroeste 2.2 955.6 0.8 95
2020-01-25 18:00:00 9.4 5 Este 8 Este 0 955 -0.2 95
2020-01-25 17:00:00 9.5 8 Este 14 Este 0 954.8 -1.2 93
2020-01-25 16:00:00 9.6 9 Este 14 Este 0.2 954.8 -1.7 93
2020-01-25 15:00:00 9.1 10 Este 16 Este 0.8 955.2 -1.9 94
2020-01-25 14:00:00 9.1 5 Este 12 Sudeste 1.6 956 -1 94
2020-01-25 13:00:00 8.9 10 Este 23 Sudeste 0.4 956.5 -0.1 91
2020-01-25 12:00:00 8.6 12 Este 16 Este 0 957.1 0.9 91
2020-01-25 11:00:00 8.4 10 Este 15 Este 0 957 1.2 89
2020-01-25 10:00:00 7.7 8 Este 13 Este 0 956.6 1 92
2020-01-25 09:00:00 6.9 10 Este 14 Este 0 956.2 0.7 93
2020-01-25 08:00:00 7.1 6 Este 17 Sudeste 0 955.8 0.3 92
2020-01-25 07:00:00 6.9 12 Este 18 Sudeste 0 955.6 -0.3 94
2020-01-25 06:00:00 6.9 13 Este 24 Este 0 955.5 -1 95
2020-01-25 05:00:00 6.5 13 Este 23 Este 0.2 955.5 -1.3 98
2020-01-25 04:00:00 6.6 14 Este 21 Este 0.2 955.9 -1.6 98
2020-01-25 03:00:00 6.6 12 Este 17 Este 2 956.5 -1.3 99
2020-01-25 02:00:00 6.9 13 Este 17 Este 1.6 956.8 -1.3 97
2020-01-25 01:00:00 6.9 9 Este 17 Este 1 957.5 -0.7 97
2020-01-25 00:00:00 7.4 11 Este 19 Este 0 957.8 -0.5 91
2020-01-24 23:00:00 6.9 7 Este 14 Este 0 958.1 0.1 91
2020-01-24 22:00:00 7.7 9 Este 16 Este 0 958.2 0.6 88
2020-01-24 21:00:00 7.3 11 Este 14 Este 0 958.3 0.3 90
2020-01-24 20:00:00 8 8 Este 14 Nordeste 0 958 -0.2 87
2020-01-24 19:00:00 8.6 13 Este 16 Este 0 957.6 -0.5 87
2020-01-24 18:00:00 9.9 6 Este 12 Este 0 958 -0.4 82
2020-01-24 17:00:00 10.3 9 Este 19 Sudeste 0 958.2 -0.9 79
2020-01-24 16:00:00 10.3 10 Sudeste 18 Este 0 958.1 -1.6 80
2020-01-24 15:00:00 9.8 12 Este 22 Este 0 958.4 -1.8 86
2020-01-24 14:00:00 10.5 9 Este 13 Este 0 959.1 -0.8 80
2020-01-24 13:00:00 11.7 5 Sur 16 Este 0 959.7 0.1 73
2020-01-24 12:00:00 9.3 9 Este 17 Sudeste 0 960.2 0.9 88
2020-01-24 11:00:00 7.8 10 Este 22 Este 0 959.9 1.1 94
2020-01-24 10:00:00 6.6 14 Este 21 Sudeste 0 959.6 1 96
2020-01-24 09:00:00 6.3 12 Este 20 Este 0 959.3 0.8 98
2020-01-24 08:00:00 6.3 14 Este 21 Este 0.4 958.8 0.3 98
2020-01-24 07:00:00 6.4 12 Este 16 Este 0.8 958.6 0.5 98
2020-01-24 06:00:00 6.5 10 Este 14 Este 2.6 958.5 0.5 96
2020-01-24 05:00:00 7 8 Este 17 Sudeste 0.6 958.5 0.4 92
2020-01-24 04:00:00 7.4 13 Este 27 Este 0 958.1 -0.4 89
2020-01-24 03:00:00 7.5 13 Este 31 Este 0 958 -0.4 86
2020-01-24 02:00:00 7.5 15 Este 24 Este 0 958.1 -0.3 86
2020-01-24 01:00:00 7.7 13 Este 25 Este 0 958.5 0.2 85
2020-01-24 00:00:00 7.6 16 Este 23 Este 0 958.4 0.4 85
2020-01-23 23:00:00 8.2 10 Este 19 Este 0 958.4 0.8 82
2020-01-23 22:00:00 8.8 11 Este 16 Este 0 958.3 1 80
2020-01-23 21:00:00 8.9 10 Este 14 Sudeste 0 958 1.2 80
2020-01-23 20:00:00 9.1 6 Este 13 Sudeste 0 957.6 0.8 78
2020-01-23 19:00:00 9.9 5 Sudeste 16 Sudeste 0 957.3 0.7 71
2020-01-23 18:00:00 10.7 9 Sudeste 21 Sudeste 0 956.8 0 65
2020-01-23 17:00:00 11.8 11 Sudeste 23 Sudeste 0 956.8 -0.5 64
2020-01-23 16:00:00 11.7 11 Este 20 Este 0 956.6 -1.7 69
2020-01-23 15:00:00 8.9 9 Este 23 Este 0 956.8 -2 80
2020-01-23 14:00:00 7.4 18 Este 31 Este 0 957.3 -1.5 82
2020-01-23 13:00:00 7 17 Este 32 Este 0 958.3 0.1 83
2020-01-23 12:00:00 6.3 18 Sudeste 32 Este 0 958.8 1.2 82
2020-01-23 11:00:00 4.5 18 Este 33 Este 0 958.8 1.9 86
2020-01-23 10:00:00 2.8 10 Sudeste 21 Sudeste 0 958.2 1.6 92
2020-01-23 09:00:00 1.9 6 Este 18 Este 0 957.6 1.1 94
2020-01-23 08:00:00 2 5 Este 18 Este 0 956.9 0 93
2020-01-23 07:00:00 2.9 9 Sudeste 23 Este 0 956.6 -0.6 90
2020-01-23 06:00:00 2.8 13 Este 19 Este 0 956.5 -0.6 92
2020-01-23 05:00:00 3.1 10 Este 16 Este 0 956.9 -0.4 92
2020-01-23 04:00:00 3.6 14 Este 24 Este 0 957.2 -0.3 91
2020-01-23 03:00:00 3.9 12 Este 23 Este 0 957.1 0 92
2020-01-23 02:00:00 4.2 17 Este 23 Este 0 957.3 0.5 92
2020-01-23 01:00:00 4.2 10 Este 14 Este 0 957.5 0.9 93
2020-01-23 00:00:00 4.7 9 Este 15 Este 0 957.1 0.8 90
2020-01-22 23:00:00 5.4 7 Este 18 Nordeste 0 956.8 0.8 87
2020-01-22 22:00:00 6.5 13 Nordeste 23 Nordeste 0 956.6 1.2 83
2020-01-22 21:00:00 6.6 14 Nordeste 20 Este 0 956.3 1.1 82
2020-01-22 20:00:00 7.3 10 Este 15 Este 0 956 0.8 78
2020-01-22 19:00:00 8.7 11 Este 15 Este 0 955.4 -0.1 75
2020-01-22 18:00:00 9.8 9 Este 19 Este 0 955.2 -0.8 70
2020-01-22 17:00:00 10.6 10 Este 23 Sudeste 0 955.2 -1.5 69
2020-01-22 16:00:00 11 13 Sudeste 27 Sudeste 0 955.5 -2.1 68
2020-01-22 15:00:00 10.9 15 Sudeste 32 Este 0 956 -2.1 67
2020-01-22 14:00:00 11.2 15 Este 30 Este 0 956.7 -1.3 72
2020-01-22 13:00:00 8.7 17 Este 31 Este 0 957.6 -0.3 82
2020-01-22 12:00:00 8.3 18 Este 28 Este 0 958.1 0.8 84
2020-01-22 11:00:00 7 18 Este 30 Este 0 958 1.2 86
2020-01-22 10:00:00 5.8 15 Este 25 Este 0 957.9 1.8 89
2020-01-22 09:00:00 5.3 9 Este 24 Este 0.2 957.3 1.1 93
2020-01-22 08:00:00 5.3 13 Este 30 Nordeste 0.4 956.8 0.4 91
2020-01-22 07:00:00 5.7 18 Nordeste 28 Nordeste 0 956.1 -0.6 86
2020-01-22 06:00:00 5.4 6 Sudeste 14 Este 0.4 956.2 -0.4 91
2020-01-22 05:00:00 5.3 7 Este 15 Este 0.2 956.4 -0.3 92
2020-01-22 04:00:00 5.3 8 Este 15 Este 0 956.7 0 89
2020-01-22 03:00:00 4.9 4 Este 12 Este 0 956.6 0.1 90
2020-01-22 02:00:00 4.4 4 Nordeste 9 Este 0 956.7 0.3 91
2020-01-22 01:00:00 4.2 4 Nordeste 9 Nordeste 0 956.7 0.4 89
2020-01-22 00:00:00 4.2 6 Nordeste 9 Este 0 956.5 0.9 88
2020-01-21 23:00:00 4.8 6 Este 10 Este 0 956.4 0.6 87
2020-01-21 22:00:00 4.7 6 Este 16 Este 0 956.3 1.2 89
2020-01-21 21:00:00 5.1 9 Este 24 Este 0 955.6 0.6 86
2020-01-21 20:00:00 5.5 14 Este 27 Nordeste 0 955.8 0.9 86
2020-01-21 19:00:00 5.3 12 Este 30 Este 0 955.1 0.6 89
2020-01-21 18:00:00 5.1 18 Nordeste 36 Este 0.8 955 0.9 89
2020-01-21 17:00:00 6.3 27 Este 49 Este 0.6 954.9 -0.4 84
2020-01-21 16:00:00 8.7 18 Nordeste 45 Este 0 954.5 -2 62
2020-01-21 15:00:00 8.4 29 Nordeste 48 Nordeste 0 954.1 -3.1 63
2020-01-21 14:00:00 7.8 19 Este 39 Este 0 955.3 -2.3 66
2020-01-21 13:00:00 6.5 20 Nordeste 37 Nordeste 0 956.5 -1.1 73
2020-01-21 12:00:00 6.4 16 Este 39 Este 0 957.2 -0.6 72
2020-01-21 11:00:00 5.7 23 Este 49 Este 0 957.6 -0.6 72
2020-01-21 10:00:00 6 27 Este 57 Este 0 957.6 -0.8 65
2020-01-21 09:00:00 5.5 20 Este 41 Nordeste 0 957.8 -0.7 66
2020-01-21 08:00:00 4.5 11 Nordeste 32 Nordeste 0 958.2 -0.4 69
2020-01-21 07:00:00 4.6 18 Nordeste 44 Este 0 958.4 -0.8 67
2020-01-21 06:00:00 4.7 24 Nordeste 44 Este 0 958.5 -1.5 65
2020-01-21 05:00:00 5 28 Nordeste 47 Nordeste 0 958.6 -1.9 64
2020-01-21 04:00:00 5.2 29 Nordeste 50 Este 0 959.2 -1.5 63
2020-01-21 03:00:00 5.2 21 Nordeste 39 Este 0 960 -1.1 65
2020-01-21 02:00:00 5.5 20 Nordeste 35 Este 0 960.5 -0.4 60
2020-01-21 01:00:00 5.6 17 Nordeste 38 Nordeste 0 960.7 -0.3 61
2020-01-21 00:00:00 5.3 18 Nordeste 41 Nordeste 0 961.1 0.5 61
2020-01-20 23:00:00 5.3 23 Nordeste 40 Nordeste 0 960.9 0.5 60
2020-01-20 22:00:00 5.7 19 Nordeste 45 Nordeste 0 961 1.1 60
2020-01-20 21:00:00 6 27 Nordeste 46 Nordeste 0 960.6 1 58
2020-01-20 20:00:00 6.3 27 Nordeste 55 Nordeste 0 960.4 0.9 56
2020-01-20 19:00:00 6.4 29 Nordeste 48 Nordeste 0 959.9 0.3 55
2020-01-20 18:00:00 6.8 26 Nordeste 44 Este 0 959.6 -0.3 53
2020-01-20 17:00:00 6.4 33 Este 57 Este 0 959.5 -1 59
2020-01-20 16:00:00 7.2 25 Nordeste 48 Nordeste 0 959.6 -1.7 48
2020-01-20 15:00:00 6.9 21 Nordeste 46 Este 0 959.9 -2.1 46
2020-01-20 14:00:00 5.8 20 Nordeste 49 Nordeste 0 960.5 -1.7 43
2020-01-20 13:00:00 4.3 34 Nordeste 58 Nordeste 0 961.3 -0.9 50
2020-01-20 12:00:00 4.3 24 Nordeste 44 Nordeste 0 962 0.4 39
2020-01-20 11:00:00 3.8 23 Nordeste 40 Este 0 962.2 0.6 38
2020-01-20 10:00:00 3.6 23 Este 44 Este 0 962.2 0.6 39
2020-01-20 09:00:00 3.6 22 Este 42 Nordeste 0 961.6 -0.2 38
2020-01-20 08:00:00 3.4 21 Nordeste 41 Este 0 961.6 -0.2 39
2020-01-20 07:00:00 3.3 18 Nordeste 36 Nordeste 0 961.6 -0.8 40
2020-01-20 06:00:00 3.2 21 Este 40 Este 0 961.8 -1 42
2020-01-20 05:00:00 3.4 23 Este 38 Este 0 961.8 -1 42
2020-01-20 04:00:00 3.6 17 Este 30 Nordeste 0 962.4 -1.1 41
2020-01-20 03:00:00 3.8 16 Nordeste 29 Este 0 962.8 -1.1 41
2020-01-20 02:00:00 4 24 Nordeste 42 Nordeste 0 962.8 -0.6 41
2020-01-20 01:00:00 4.5 26 Nordeste 46 Nordeste 0 963.5 0.6 39
2020-01-20 00:00:00 4.6 22 Nordeste 39 Este 0 963.9 1.8 41
2020-01-19 23:00:00 4.8 24 Este 38 Este 0 963.4 1.8 40
2020-01-19 22:00:00 5.3 19 Este 35 Nordeste 0 962.9 1.9 38
2020-01-19 21:00:00 5.9 21 Nordeste 35 Nordeste 0 962.1 2.1 45
2020-01-19 20:00:00 7 18 Nordeste 32 Nordeste 0 961.6 2.1 43
2020-01-19 19:00:00 8.3 20 Nordeste 46 Nordeste 0 961 1.6 31
2020-01-19 18:00:00 9.6 26 Nordeste 63 Este 0 960 0.4 28
2020-01-19 17:00:00 9.5 17 Este 42 Nordeste 0 959.5 -0.5 38
2020-01-19 16:00:00 9.6 27 Nordeste 51 Este 0 959.4 -1.1 36
2020-01-19 15:00:00 9.3 19 Nordeste 41 Nordeste 0 959.6 -0.8 44
2020-01-19 14:00:00 8.9 14 Nordeste 34 Nordeste 0 960 0 59
2020-01-19 13:00:00 8.7 20 Nordeste 33 Nordeste 0 960.5 0.8 66
2020-01-19 12:00:00 7.5 6 Noroeste 15 Noroeste 0 960.4 0.9 80
2020-01-19 11:00:00 7.1 5 Noroeste 17 Norte 0 960 0.9 80
2020-01-19 10:00:00 6.5 14 Norte 23 Norte 0 959.7 0.6 82
2020-01-19 09:00:00 5.1 4 Oeste 8 Sudoeste 0 959.5 0.3 90
2020-01-19 08:00:00 5 4 Oeste 15 Norte 0 959.1 -0.4 88
2020-01-19 07:00:00 5.4 6 Norte 14 Norte 0 959.1 -0.8 86
2020-01-19 06:00:00 5.8 5 Norte 15 Noroeste 0 959.2 -0.5 86
2020-01-19 05:00:00 6.2 6 Noroeste 14 Noroeste 0 959.5 -0.2 94
2020-01-19 04:00:00 6.6 8 Noroeste 14 Oeste 0 959.9 0.2 94
2020-01-19 03:00:00 6.7 9 Noroeste 14 Noroeste 0 959.7 0 89
2020-01-19 02:00:00 7.4 10 Noroeste 19 Oeste 0 959.7 -0.1 87
2020-01-19 01:00:00 7.9 17 Noroeste 43 Oeste 3.8 959.7 -0.8 85
2020-01-19 00:00:00 8.6 35 Oeste 56 Oeste 4.4 959.7 -0.9 91
2020-01-18 23:00:00 10 16 Oeste 29 Noroeste 0 959.8 -0.5 96
2020-01-18 22:00:00 9.9 15 Noroeste 23 Noroeste 0 960.5 0.1 98
2020-01-18 21:00:00 9.6 17 Noroeste 27 Norte 1.2 960.6 -0.5 99
2020-01-18 20:00:00 9 11 Noroeste 19 Oeste 0 960.3 -1.3 99
2020-01-18 19:00:00 9.7 6 Sudoeste 17 Oeste 0 960.4 -2.3 95
2020-01-18 18:00:00 10.4 13 Noroeste 19 Noroeste 0 961.1 -2.6 91
2020-01-18 17:00:00 11 12 Noroeste 18 Noroeste 0 961.6 -3.4 87
2020-01-18 16:00:00 10.8 11 Noroeste 17 Noroeste 0 962.7 -3.9 89
2020-01-18 15:00:00 10.9 9 Noroeste 16 Noroeste 0 963.7 -4.2 88
2020-01-18 14:00:00 10.8 10 Oeste 20 Sudoeste 0 965 -3.5 87
2020-01-18 13:00:00 11.2 9 Oeste 13 Oeste 0 966.6 -1.9 85
2020-01-18 12:00:00 9.5 5 Este 12 Este 0 967.9 -0.6 92
2020-01-18 11:00:00 8.3 8 Sudeste 13 Este 0 968.5 -0.5 94
2020-01-18 10:00:00 7.5 5 Sudeste 11 Este 0 968.5 -1.1 95
2020-01-18 09:00:00 6.9 6 Este 8 Este 0.6 968.5 -0.5 97
2020-01-18 08:00:00 6.3 6 Nordeste 9 Oeste 1 969 0.5 98
2020-01-18 07:00:00 6.1 5 Oeste 17 Este 0.4 969.6 0.7 95
2020-01-18 06:00:00 6.3 5 Sudoeste 11 Sudeste 0 969 -0.1 91
2020-01-18 05:00:00 7 4 Este 8 Este 0 968.5 -1.5 87
2020-01-18 04:00:00 7.4 3 Nordeste 5 Noroeste 0 968.9 -1.2 84
2020-01-18 03:00:00 7.3 2 Norte 5 Este 0 969.1 -1.4 84
2020-01-18 02:00:00 7.2 3 Oeste 9 Noroeste 0 970 -0.6 85
2020-01-18 01:00:00 7.2 3 Norte 9 Oeste 0 970.1 -0.9 85
2020-01-18 00:00:00 7.5 4 Noroeste 6 Noroeste 0 970.5 -0.7 85
2020-01-17 23:00:00 7.7 4 Noroeste 6 Oeste 0 970.6 0 85
2020-01-17 22:00:00 7.8 3 Noroeste 8 Oeste 0 971 0.9 85
2020-01-17 21:00:00 8.3 6 Noroeste 8 Noroeste 0 971.2 1.2 85
2020-01-17 20:00:00 8.9 3 Noroeste 5 Noroeste 0 970.6 0.9 84
2020-01-17 19:00:00 10 3 Noroeste 15 Noroeste 0 970.1 0.9 80
2020-01-17 18:00:00 11.8 10 Noroeste 26 Noroeste 0 970 0.6 72
2020-01-17 17:00:00 12.3 16 Noroeste 26 Oeste 0 969.7 0 69
2020-01-17 16:00:00 13 16 Oeste 27 Oeste 0 969.2 -0.9 66
2020-01-17 15:00:00 12.7 16 Noroeste 30 Noroeste 0 969.4 -1.1 69
2020-01-17 14:00:00 12.8 24 Oeste 37 Oeste 0 969.7 -0.5 67
2020-01-17 13:00:00 12.5 27 Oeste 39 Oeste 0 970.1 0.5 67
2020-01-17 12:00:00 11.3 21 Oeste 29 Oeste 0 970.5 1.6 72
2020-01-17 11:00:00 9.4 5 Sudoeste 14 Oeste 0 970.2 1.9 80
2020-01-17 10:00:00 7.8 6 Noroeste 12 Oeste 0 969.6 1.7 85
2020-01-17 09:00:00 6.5 2 Oeste 5 Oeste 0 968.9 1.7 85
2020-01-17 08:00:00 6.6 0 Calma 8 Sudoeste 0 968.3 1.6 84
2020-01-17 07:00:00 6.8 4 Oeste 10 Oeste 0 967.9 1.2 81
2020-01-17 06:00:00 7.3 9 Oeste 14 Oeste 0 967.2 0.4 78
2020-01-17 05:00:00 8.2 7 Oeste 14 Oeste 0 966.7 0.2 73
2020-01-17 04:00:00 9.5 5 Oeste 14 Oeste 0 966.7 0 66
2020-01-17 03:00:00 9.8 10 Oeste 15 Sudoeste 0 966.8 0.5 63
2020-01-17 02:00:00 9.7 5 Noroeste 9 Sudoeste 0 966.5 0.6 63
2020-01-17 01:00:00 10.7 7 Noroeste 15 Noroeste 0 966.7 1.2 58
2020-01-17 00:00:00 10.5 12 Oeste 18 Oeste 0 966.3 1.1 53
2020-01-16 23:00:00 9.9 9 Oeste 15 Oeste 0 965.9 0.7 55
2020-01-16 22:00:00 10.6 3 Noroeste 17 Sudoeste 0 965.5 1 51
2020-01-16 21:00:00 10.7 3 Oeste 12 Sudoeste 0 965.2 1 50
2020-01-16 20:00:00 11.2 2 Sudoeste 12 Sudoeste 0 965.2 1.1 47
2020-01-16 19:00:00 12.1 8 Sudoeste 14 Oeste 0 964.5 0.4 46
2020-01-16 18:00:00 14.3 9 Oeste 17 Oeste 0 964.2 0 47
2020-01-16 17:00:00 16.4 12 Oeste 29 Oeste 0 964.1 -1.1 45
2020-01-16 16:00:00 17.1 22 Oeste 33 Oeste 0 964.1 -2.1 34
2020-01-16 15:00:00 17.1 9 Noroeste 15 Noroeste 0 964.2 -2.6 50
2020-01-16 14:00:00 16 4 Oeste 10 Sur 0 965.2 -1.5 57
2020-01-16 13:00:00 14.3 3 Sudoeste 13 Oeste 0 966.2 -0.6 67
2020-01-16 12:00:00 12.4 8 Sudeste 14 Sudeste 0 966.8 0.5 75
2020-01-16 11:00:00 9.6 7 Sudeste 13 Sudeste 0 966.7 0.4 85
2020-01-16 10:00:00 7.1 5 Este 8 Este 0 966.8 0.9 92
2020-01-16 09:00:00 6.9 2 Sudeste 10 Este 0 966.3 0.5 92
2020-01-16 08:00:00 6.6 2 Sur 4 Sur 0 966.3 0.2 92
2020-01-16 07:00:00 7 2 Este 11 Este 0 965.9 -0.4 91
2020-01-16 06:00:00 6.8 4 Este 14 Sudeste 0 965.8 -0.4 90
2020-01-16 05:00:00 7 3 Sudeste 9 Este 0 966.1 -0.2 90
2020-01-16 04:00:00 7.2 7 Este 11 Sudeste 0 966.3 -0.4 89
2020-01-16 03:00:00 7.3 3 Este 10 Este 0 966.2 -0.7 88
2020-01-16 02:00:00 7.2 5 Sudeste 11 Sudeste 0 966.3 -0.3 89
2020-01-16 01:00:00 7 2 Sudoeste 7 Sur 0 966.7 0.3 90
2020-01-16 00:00:00 7.1 5 Sudeste 9 Sudeste 0 966.9 0.4 90
2020-01-15 23:00:00 7.6 4 Este 9 Este 0 966.6 0.3 85
2020-01-15 22:00:00 7.9 6 Este 9 Este 0 966.4 0.8 85
2020-01-15 21:00:00 8.3 0 Calma 10 Sudeste 0 966.5 1.3 83
2020-01-15 20:00:00 8.9 3 Sudeste 8 Nordeste 0 966.3 1.4 80
2020-01-15 19:00:00 9.1 4 Nordeste 9 Este 0 965.6 1 80
2020-01-15 18:00:00 9.5 3 Nordeste 6 Este 0 965.2 1 78
2020-01-15 17:00:00 9.8 4 Este 11 Nordeste 0 964.9 0.6 76
2020-01-15 16:00:00 9.8 6 Nordeste 8 Nordeste 0 964.6 -0.1 75
2020-01-15 15:00:00 10.4 3 Sur 8 Oeste 0 964.2 -1 75
2020-01-15 14:00:00 10.3 3 Sudeste 10 Sudeste 0 964.3 -0.3 77
2020-01-15 13:00:00 9.3 5 Sur 14 Norte 0 964.7 1.6 80
2020-01-15 12:00:00 5.8 3 Nordeste 10 Este 0 965.2 2.6 90
2020-01-15 11:00:00 5.7 3 Sur 10 Este 0 964.6 2 87
2020-01-15 10:00:00 6.3 10 Este 16 Este 0 963.1 1.1 85
2020-01-15 09:00:00 3.5 10 Este 13 Este 0 962.6 0.6 94
2020-01-15 08:00:00 2.8 4 Este 8 Este 0 962.6 0.8 97
2020-01-15 07:00:00 2.6 3 Sudoeste 16 Este 0 962 -0.1 93
2020-01-15 06:00:00 3.3 8 Este 13 Este 0 962 -0.1 91
2020-01-15 05:00:00 5.2 5 Este 8 Este 0 961.8 -0.1 88
2020-01-15 04:00:00 5.5 5 Sudeste 10 Sudeste 0 962.1 -0.1 87
2020-01-15 03:00:00 5 4 Norte 13 Sudeste 0 962.1 -0.2 84
2020-01-15 02:00:00 5.3 9 Este 12 Este 0 961.9 -0.5 83
2020-01-15 01:00:00 4.6 6 Este 10 Este 0 962.2 0 86
2020-01-15 00:00:00 5.7 4 Sudeste 10 Este 0 962.3 0.4 81
2020-01-14 23:00:00 5.6 2 Sudeste 5 Sudoeste 0 962.4 0.6 82
2020-01-14 22:00:00 5.4 3 Sudoeste 7 Sudoeste 0 962.2 0.5 80
2020-01-14 21:00:00 6.3 4 Nordeste 8 Este 0 961.9 1 79
2020-01-14 20:00:00 6.5 2 Sur 5 Sur 0 961.8 0.8 76
2020-01-14 19:00:00 7.5 3 Sudeste 10 Norte 0 961.7 1 72
2020-01-14 18:00:00 9.1 8 Nordeste 17 Noroeste 0 960.9 -0.5 66
2020-01-14 17:00:00 11.1 12 Noroeste 22 Oeste 0 961 -1.1 58
2020-01-14 16:00:00 13.2 4 Oeste 11 Oeste 0 960.7 -2.1 51
2020-01-14 15:00:00 12.2 5 Sur 13 Sudeste 0 961.4 -2 53
2020-01-14 14:00:00 10.5 6 Sudeste 11 Sudeste 0 962.1 -1.3 56
2020-01-14 13:00:00 8 6 Este 11 Este 0 962.8 -0.4 64
2020-01-14 12:00:00 5.3 7 Sudeste 11 Sudeste 0 963.4 0.7 71
2020-01-14 11:00:00 2.7 7 Sudeste 12 Sudeste 0 963.4 0.8 79
2020-01-14 10:00:00 -0.2 8 Sudeste 12 Sudeste 0 963.2 1.1 90
2020-01-14 09:00:00 -2.5 3 Sudeste 5 Este 0 962.7 0.7 95
2020-01-14 08:00:00 -2.3 0 Calma 3 Sur 0 962.6 0.6 96
2020-01-14 07:00:00 -2.2 4 Este 7 Este 0 962.1 -0.3 94
2020-01-14 06:00:00 -0.8 5 Este 8 Sudeste 0 962 -0.4 93
2020-01-14 05:00:00 -0.8 3 Nordeste 5 Nordeste 0 962 -0.9 95
2020-01-14 04:00:00 0.1 2 Sur 8 Este 0 962.4 -1 89
2020-01-14 03:00:00 0.3 5 Sudeste 8 Este 0 962.4 -1.2 90
2020-01-14 02:00:00 0.9 3 Sur 4 Sudeste 0 962.9 -0.7 88
2020-01-14 01:00:00 1.3 2 Sur 3 Sur 0 963.4 -0.2 88
2020-01-14 00:00:00 1.9 0 Calma 3 Norte 0 963.6 0.2 87
2020-01-13 23:00:00 1.9 0 Calma 5 Sur 0 963.6 0.2 86
2020-01-13 22:00:00 2.8 0 Calma 6 Sur 0 963.6 0.2 83
2020-01-13 21:00:00 3.9 5 Nordeste 8 Sudeste 0 963.4 0.2 76
2020-01-13 20:00:00 5.1 2 Este 5 Este 0 963.4 0 73
2020-01-13 19:00:00 6.4 0 Calma 5 Sur 0 963.4 -0.3 68
2020-01-13 18:00:00 8.5 3 Sur 8 Oeste 0 963.2 -0.8 60
2020-01-13 17:00:00 8.7 8 Oeste 14 Noroeste 0 963.4 -1.3 59
2020-01-13 16:00:00 9.1 8 Oeste 15 Noroeste 0 963.7 -1.9 57
2020-01-13 15:00:00 8.7 4 Sudoeste 9 Oeste 0 964 -2.2 62
2020-01-13 14:00:00 7.5 4 Sudoeste 9 Sudoeste 0 964.7 -1.9 63
2020-01-13 13:00:00 5.5 5 Oeste 10 Sudoeste 0 965.6 -0.6 69
2020-01-13 12:00:00 3.2 5 Sudeste 10 Sur 0 966.2 0.3 76
2020-01-13 11:00:00 1.6 6 Sudeste 12 Este 0 966.6 0.5 82
2020-01-13 10:00:00 -0.9 7 Sudeste 13 Sudeste 0 966.2 0.3 91
2020-01-13 09:00:00 -2.9 5 Sudeste 10 Sudeste 0 965.9 -0.2 94
2020-01-13 08:00:00 -3 3 Sudeste 4 Sudeste 0 966.1 -0.5 96
2020-01-13 07:00:00 -2.7 2 Sudoeste 10 Sudeste 0 965.9 -1 94
2020-01-13 06:00:00 -2.6 8 Este 11 Este 0 966.1 -1.1 94
2020-01-13 05:00:00 -2.3 3 Sudeste 6 Este 0 966.6 -1 95
2020-01-13 04:00:00 -2 3 Este 6 Sudeste 0 966.9 -1.1 95
2020-01-13 03:00:00 -1.7 3 Sudeste 8 Este 0 967.2 -1.4 92
2020-01-13 02:00:00 -0.9 2 Sudeste 5 Sudeste 0 967.6 -1 90
2020-01-13 01:00:00 0.5 3 Sudeste 6 Sudeste 0 968 -0.5 85
2020-01-13 00:00:00 1.8 4 Este 9 Este 0 968.6 0 80
2020-01-12 23:00:00 2.7 0 Calma 4 Este 0 968.6 0.1 80
2020-01-12 22:00:00 3.9 4 Este 5 Este 0 968.5 0.3 79
2020-01-12 21:00:00 4.9 0 Calma 4 Sur 0 968.6 0.9 72
2020-01-12 20:00:00 6.2 2 Sur 4 Oeste 0 968.5 0.8 67
2020-01-12 19:00:00 7.6 4 Noroeste 9 Oeste 0 968.2 0.2 64
2020-01-12 18:00:00 10.4 5 Oeste 12 Oeste 0 967.7 -0.5 54
2020-01-12 17:00:00 11 10 Noroeste 19 Oeste 0 967.7 -1.2 51
2020-01-12 16:00:00 11.3 12 Noroeste 18 Noroeste 0 968 -2 49
2020-01-12 15:00:00 11.3 5 Oeste 11 Sudoeste 0 968.2 -2.6 53
2020-01-12 14:00:00 10.1 6 Sudoeste 10 Sudoeste 0 968.9 -2.2 57
2020-01-12 13:00:00 7.5 3 Nordeste 10 Sudeste 0 970 -0.6 65
2020-01-12 12:00:00 5.2 6 Sudeste 10 Sudeste 0 970.8 0.7 71
2020-01-12 11:00:00 2.1 6 Sudeste 10 Sudeste 0 971.1 1.2 80
2020-01-12 10:00:00 -0.3 7 Sudeste 11 Sudeste 0 970.6 0.8 91
2020-01-12 09:00:00 -3.2 3 Sudeste 6 Este 0 970.1 0.4 95
2020-01-12 08:00:00 -2.6 3 Noroeste 6 Sur 0 969.9 0.2 97
2020-01-12 07:00:00 -2 5 Sur 7 Sur 0 969.8 -0.2 94
2020-01-12 06:00:00 -1.6 4 Sudeste 7 Sudeste 0 969.7 -0.1 96
2020-01-12 05:00:00 -1.8 0 Calma 7 Este 0 969.7 0 96
2020-01-12 04:00:00 -1.4 0 Calma 5 Sur 0 970 0.2 94
2020-01-12 03:00:00 0 4 Sur 5 Este 0 969.8 -0.2 91
2020-01-12 02:00:00 0.8 3 Sudeste 8 Este 0 969.7 -0.3 90
2020-01-12 01:00:00 1.3 0 Calma 3 Sudeste 0 969.8 -0.2 88
2020-01-12 00:00:00 1.9 2 Sur 5 Sur 0 970 0.2 85
2020-01-11 23:00:00 3 2 Sudeste 9 Sudoeste 0 970 0.5 80
2020-01-11 22:00:00 4.2 4 Oeste 6 Oeste 0 970 0.9 73
2020-01-11 21:00:00 4.8 0 Calma 5 Sudoeste 0 969.8 1 72
2020-01-11 20:00:00 6.3 0 Calma 6 Este 0 969.5 0.6 66
2020-01-11 19:00:00 7.1 5 Este 9 Sudeste 0 969.1 0.1 63
2020-01-11 18:00:00 10.2 7 Sudeste 10 Sudeste 0 968.8 -0.4 53
2020-01-11 17:00:00 12.5 5 Sudoeste 9 Sudoeste 0 968.9 -1 46
2020-01-11 16:00:00 12 4 Este 9 Sudeste 0 969 -1.9 49
2020-01-11 15:00:00 11.3 5 Sur 12 Sudeste 0 969.2 -2.6 51
2020-01-11 14:00:00 10 5 Oeste 23 Sur 0 969.9 -1.9 54
2020-01-11 13:00:00 8.5 3 Este 13 Sudeste 0 970.9 -0.1 59
2020-01-11 12:00:00 7.1 6 Sudeste 12 Sudeste 0 971.8 1 63
2020-01-11 11:00:00 5 3 Sur 6 Sur 0 971.8 1.3 73
2020-01-11 10:00:00 2 3 Sur 5 Sudoeste 0 971 1 84
2020-01-11 09:00:00 -0.9 2 Noroeste 5 Sur 0 970.8 1 93
2020-01-11 08:00:00 -0.1 3 Este 6 Este 0 970.5 0.6 87
2020-01-11 07:00:00 0.1 4 Sur 5 Sur 0 970 -0.1 88
2020-01-11 06:00:00 0.8 2 Sur 5 Oeste 0 969.8 -0.1 88
2020-01-11 05:00:00 0.5 3 Sudoeste 5 Sudoeste 0 969.9 0.3 89
2020-01-11 04:00:00 0.9 6 Oeste 8 Oeste 0 970.1 0.5 84
2020-01-11 03:00:00 2.1 4 Sur 13 Nordeste 0 969.9 0.2 82
2020-01-11 02:00:00 3.2 4 Este 5 Nordeste 0 969.6 0.5 78
2020-01-11 01:00:00 3.7 3 Sudeste 12 Este 0 969.6 0.5 74
2020-01-11 00:00:00 4.8 10 Este 15 Este 0 969.7 0.8 68
2020-01-10 23:00:00 5.8 10 Este 17 Este 0 969.1 1 63
2020-01-10 22:00:00 6.7 11 Este 19 Nordeste 0 969.1 1.5 60
2020-01-10 21:00:00 7 5 Nordeste 18 Norte 0 968.9 1.7 59
2020-01-10 20:00:00 8.9 14 Nordeste 19 Nordeste 0 968.1 1.4 52
2020-01-10 19:00:00 9 14 Nordeste 21 Nordeste 0 967.6 1.6 51
2020-01-10 18:00:00 11.1 8 Nordeste 19 Nordeste 0 967.2 1 43
2020-01-10 17:00:00 12.4 10 Nordeste 30 Nordeste 0 966.7 -0.1 40
2020-01-10 16:00:00 12.6 17 Nordeste 35 Norte 0 966 -1.8 38
2020-01-10 15:00:00 13 10 Nordeste 20 Nordeste 0 966.2 -1.9 39
2020-01-10 14:00:00 12 6 Noroeste 14 Oeste 0 966.8 -1.2 51
2020-01-10 13:00:00 11.2 4 Sur 12 Sur 0 967.8 0.2 53
2020-01-10 12:00:00 10.1 6 Sur 12 Sur 0 968.1 1.2 58
2020-01-10 11:00:00 8.1 10 Nordeste 18 Norte 0 968 1.5 62
2020-01-10 10:00:00 6.4 10 Norte 19 Norte 0 967.6 2.2 67
2020-01-10 09:00:00 4.6 16 Norte 26 Norte 0 966.9 2 75
2020-01-10 08:00:00 4.5 13 Norte 20 Norte 0 966.5 1.6 76
2020-01-10 07:00:00 4.7 4 Noroeste 12 Sudeste 0 965.4 0.4 76
2020-01-10 06:00:00 4.9 3 Noroeste 9 Sudeste 0 964.9 0.2 77
2020-01-10 05:00:00 4.3 7 Sudeste 12 Sudeste 0 964.9 0.4 87
2020-01-10 04:00:00 5.1 2 Este 7 Nordeste 0 965 -0.1 88
2020-01-10 03:00:00 5.5 3 Noroeste 8 Nordeste 0 964.7 -0.1 91
2020-01-10 02:00:00 4 4 Noroeste 8 Sur 0 964.5 -0.1 94
2020-01-10 01:00:00 4.6 8 Norte 18 Norte 0 965.1 -0.1 89
2020-01-10 00:00:00 5.5 7 Noroeste 12 Noroeste 0 964.8 -0.6 87
2020-01-09 23:00:00 5.9 8 Noroeste 10 Noroeste 0 964.6 -0.5 84
2020-01-09 22:00:00 6.6 5 Oeste 11 Sudoeste 0 965.2 0.7 83
2020-01-09 21:00:00 7 0 Calma 6 Noroeste 0 965.4 1.6 82
2020-01-09 20:00:00 7.7 3 Noroeste 11 Norte 0 965.1 1.3 77
2020-01-09 19:00:00 8.7 11 Norte 14 Norte 0 964.5 0.4 73
2020-01-09 18:00:00 11.7 3 Sudoeste 16 Noroeste 0 963.8 -1.1 60
2020-01-09 17:00:00 14.4 5 Oeste 12 Noroeste 0 963.8 -1.8 52
2020-01-09 16:00:00 13.9 3 Sudeste 14 Sur 0 964.1 -1.9 53
2020-01-09 15:00:00 13 5 Sudeste 13 Sudeste 0 964.9 -1.9 57
2020-01-09 14:00:00 11.7 6 Sudeste 13 Este 0 965.6 -2.1 60
2020-01-09 13:00:00 9.3 9 Este 22 Este 0 966 -0.6 69
2020-01-09 12:00:00 8.1 12 Sudeste 19 Sudeste 0 966.8 0.2 72
2020-01-09 11:00:00 6.5 5 Nordeste 15 Este 0 967.7 1.1 79
2020-01-09 10:00:00 3.5 7 Sudeste 15 Sudeste 0 966.6 0.4 87
2020-01-09 09:00:00 1.1 2 Sudeste 10 Sudeste 0 966.6 0.2 95
2020-01-09 08:00:00 1.3 3 Oeste 15 Este 0 966.6 0 94
2020-01-09 07:00:00 1.3 8 Este 13 Sudeste 0 966.2 -0.7 95
2020-01-09 06:00:00 2.3 7 Este 16 Sudeste 0 966.4 -0.6 91
2020-01-09 05:00:00 3.8 9 Este 17 Sudeste 0 966.6 -0.5 90
2020-01-09 04:00:00 4.5 7 Este 19 Este 0 966.9 -0.5 87
2020-01-09 03:00:00 4.8 13 Este 20 Este 0 967 -0.6 88
2020-01-09 02:00:00 5.8 10 Este 18 Este 0 967.1 -0.2 86
2020-01-09 01:00:00 6.6 10 Este 17 Este 0 967.4 -0.1 84
2020-01-09 00:00:00 5.5 6 Este 13 Este 0 967.6 0.3 80
2020-01-08 23:00:00 5.5 2 Oeste 10 Nordeste 0 967.3 0.1 82
2020-01-08 22:00:00 6.9 4 Este 7 Este 0 967.5 0.5 74
2020-01-08 21:00:00 8 0 Calma 6 Sur 0 967.3 0.7 75
2020-01-08 20:00:00 9.2 5 Este 8 Este 0 967.2 0.7 67
2020-01-08 19:00:00 11 0 Calma 7 Este 0 967 0.6 62
2020-01-08 18:00:00 13.9 2 Oeste 9 Este 0 966.6 0 54
2020-01-08 17:00:00 15 9 Este 15 Sudeste 0 966.5 -0.8 48
2020-01-08 16:00:00 15 9 Sudeste 13 Sudeste 0 966.4 -1.7 45
2020-01-08 15:00:00 13.6 8 Sudeste 18 Sudeste 0 966.6 -2.5 52
2020-01-08 14:00:00 11.5 12 Sudeste 17 Sudeste 0 967.3 -2.3 61
2020-01-08 13:00:00 9.9 8 Sudeste 12 Sudeste 0 968.1 -0.9 66
2020-01-08 12:00:00 6.3 8 Sudeste 13 Sudeste 0 969.1 0.4 74
2020-01-08 11:00:00 5.2 6 Sudeste 10 Sur 0 969.6 1.1 82
2020-01-08 10:00:00 1.7 0 Calma 11 Sudeste 0 969 0.5 94
2020-01-08 09:00:00 -0.8 2 Sudeste 10 Sudeste 0 968.7 0.1 97
2020-01-08 08:00:00 -0.4 8 Este 12 Este 0 968.5 -0.1 99
2020-01-08 07:00:00 -0.9 0 Calma 5 Sudeste 0 968.5 -0.5 98
2020-01-08 06:00:00 -0.4 0 Calma 7 Este 0 968.6 -0.5 97
2020-01-08 05:00:00 0.1 3 Sudoeste 5 Sur 0 968.6 -0.3 96
2020-01-08 04:00:00 0.1 3 Nordeste 5 Nordeste 0 969 0.1 98
2020-01-08 03:00:00 0.6 2 Oeste 9 Sudeste 0 969.1 -0.3 96
2020-01-08 02:00:00 2 3 Sudeste 6 Sudeste 0 968.9 -0.5 95
2020-01-08 01:00:00 2.2 2 Oeste 6 Sur 0 968.9 -0.4 96
2020-01-08 00:00:00 3.7 3 Nordeste 5 Este 0 969.4 0 92
2020-01-07 23:00:00 5.1 0 Calma 4 Noroeste 0 969.4 0 86
2020-01-07 22:00:00 5.9 4 Noroeste 5 Norte 0 969.3 0.1 87
2020-01-07 21:00:00 7.2 0 Calma 3 Nordeste 0 969.4 0.5 80
2020-01-07 20:00:00 7.9 2 Sur 5 Sudoeste 0 969.4 0.5 76
2020-01-07 19:00:00 9.8 3 Nordeste 6 Este 0 969.2 0.3 71
2020-01-07 18:00:00 12.9 3 Sudeste 5 Sudeste 0 968.9 -0.3 58
2020-01-07 17:00:00 14.6 4 Sudoeste 9 Sur 0 968.9 -1.1 49
2020-01-07 16:00:00 14.4 4 Sudoeste 8 Este 0 968.9 -1.8 53
2020-01-07 15:00:00 12.9 4 Sudeste 12 Sudeste 0 969.2 -2.3 59
2020-01-07 14:00:00 12 5 Sudeste 14 Sudoeste 0 970 -1.5 62
2020-01-07 13:00:00 10.1 3 Sudoeste 12 Este 0 970.7 -0.7 68
2020-01-07 12:00:00 6.6 10 Sudeste 13 Este 0 971.5 0.7 77
2020-01-07 11:00:00 4.5 6 Sudeste 12 Sudeste 0 971.5 1.2 84
2020-01-07 10:00:00 1.1 9 Este 17 Sudeste 0 971.4 1.1 94
2020-01-07 09:00:00 -1.1 4 Sur 9 Este 0 970.8 0.3 96
2020-01-07 08:00:00 -0.5 4 Este 4 Este 0 970.3 0.3 99
2020-01-07 07:00:00 -0.5 3 Sudeste 6 Sudeste 0 970.3 -0.3 98
2020-01-07 06:00:00 -0.3 2 Norte 11 Este 0 970.5 0.2 97
2020-01-07 05:00:00 0.1 6 Nordeste 8 Sur 0 970 0.1 99
2020-01-07 04:00:00 1 4 Nordeste 8 Este 0 970.6 0.6 100
2020-01-07 03:00:00 1.3 6 Este 10 Este 0 970.3 0.5 95
2020-01-07 02:00:00 2.3 0 Calma 8 Nordeste 0 969.9 0.2 98
2020-01-07 01:00:00 3 4 Sudeste 10 Este 0 970 0.7 94
2020-01-07 00:00:00 4.1 5 Sur 8 Sudeste 0 969.8 0.8 91
2020-01-06 23:00:00 5.3 5 Oeste 9 Noroeste 0 969.7 1.4 87
2020-01-06 22:00:00 5.4 0 Calma 6 Sur 0 969.3 1.6 89
2020-01-06 21:00:00 6.1 3 Nordeste 6 Sudeste 0 969 1.7 86
2020-01-06 20:00:00 7.4 0 Calma 6 Sur 0 968.3 1.2 80
2020-01-06 19:00:00 8.5 3 Sudeste 13 Norte 0 967.7 0.7 76
2020-01-06 18:00:00 12.7 0 Calma 7 Sudoeste 0 967.3 0.3 58
2020-01-06 17:00:00 14.2 3 Sudeste 6 Norte 0 967.1 -0.6 52
2020-01-06 16:00:00 13.5 5 Sudeste 10 Sudeste 0 967 -1.2 54
2020-01-06 15:00:00 13 5 Sur 14 Sur 0 967 -2.2 58
2020-01-06 14:00:00 11.5 4 Sudoeste 12 Este 0 967.7 -1.7 61
2020-01-06 13:00:00 8.8 8 Sudeste 14 Sudeste 0 968.2 -1 67
2020-01-06 12:00:00 5.5 13 Sudeste 17 Sudeste 0 969.2 0.6 77
2020-01-06 11:00:00 3.1 6 Sudeste 14 Sudeste 0 969.4 1.4 87
2020-01-06 10:00:00 0.9 3 Sudeste 6 Este 0 969.2 1.5 96